createdAt,value
2018-08-06T00:00:24.209Z,101591.23
2018-08-06T00:02:52.915Z,101582.23
2018-08-06T00:05:21.588Z,101585.84
2018-08-06T00:07:50.340Z,101580.00
2018-08-06T00:10:20.595Z,101579.30
2018-08-06T00:12:49.208Z,101576.59
2018-08-06T00:15:17.907Z,101576.59
2018-08-06T00:17:46.696Z,101572.87
2018-08-06T00:20:16.112Z,101575.91
2018-08-06T00:22:45.028Z,101574.48
2018-08-06T00:25:15.104Z,101572.87
2018-08-06T00:27:44.638Z,101567.66
2018-08-06T00:30:15.020Z,101570.78
2018-08-06T00:32:44.451Z,101563.53
2018-08-06T00:35:13.792Z,101569.70
2018-08-06T00:37:42.611Z,101568.41
2018-08-06T00:40:14.230Z,101562.59
2018-08-06T00:42:43.680Z,101564.42
2018-08-06T00:45:15.411Z,101564.19
2018-08-06T00:47:44.571Z,101566.84
2018-08-06T00:50:13.453Z,101568.14
2018-08-06T00:52:42.209Z,101566.66
2018-08-06T00:55:14.456Z,101562.59
2018-08-06T00:57:43.378Z,101566.47
2018-08-06T01:00:14.263Z,101568.83
2018-08-06T01:02:43.469Z,101567.38
2018-08-06T01:05:13.578Z,101570.72
2018-08-06T01:07:43.236Z,101570.00
2018-08-06T01:10:13.801Z,101573.24
2018-08-06T01:12:42.436Z,101572.78
2018-08-06T01:15:13.369Z,101569.06
2018-08-06T01:17:42.307Z,101565.13
2018-08-06T01:20:12.603Z,101563.62
2018-08-06T01:22:42.155Z,101567.36
2018-08-06T01:25:11.474Z,101568.16
2018-08-06T01:27:40.112Z,101568.09
2018-08-06T01:30:10.828Z,101569.84
2018-08-06T01:32:39.417Z,101565.13
2018-08-06T01:35:09.652Z,101558.84
2018-08-06T01:37:38.440Z,101564.38
2018-08-06T01:40:09.101Z,101566.55
2018-08-06T01:42:37.902Z,101563.44
2018-08-06T01:45:07.261Z,101552.66
2018-08-06T01:47:36.472Z,101551.95
2018-08-06T01:50:05.967Z,101557.33
2018-08-06T01:52:34.690Z,101555.24
2018-08-06T01:55:03.421Z,101550.77
2018-08-06T01:57:32.312Z,101545.44
2018-08-06T02:00:01.040Z,101551.80
2018-08-06T02:02:29.787Z,101549.17
2018-08-06T02:04:58.524Z,101551.67
2018-08-06T02:07:27.256Z,101544.81
2018-08-06T02:09:56.076Z,101547.94
2018-08-06T02:12:24.843Z,101547.68
2018-08-06T02:14:53.594Z,101546.63
2018-08-06T02:17:22.361Z,101554.80
2018-08-06T02:19:51.380Z,101552.25
2018-08-06T02:22:20.830Z,101547.38
2018-08-06T02:24:49.479Z,101547.42
2018-08-06T02:27:18.359Z,101540.58
2018-08-06T02:29:47.071Z,101547.52
2018-08-06T02:32:15.974Z,101543.30
2018-08-06T02:34:44.745Z,101537.19
2018-08-06T02:37:13.601Z,101538.31
2018-08-06T02:39:42.229Z,101539.78
2018-08-06T02:42:11.223Z,101547.61
2018-08-06T02:44:39.912Z,101542.94
2018-08-06T02:47:08.737Z,101541.63
2018-08-06T02:49:37.807Z,101542.10
2018-08-06T02:52:07.100Z,101541.58
2018-08-06T02:54:35.679Z,101540.64
2018-08-06T02:57:04.421Z,101541.22
2018-08-06T02:59:33.197Z,101538.98
2018-08-06T03:02:02.090Z,101537.97
2018-08-06T03:04:31.216Z,101543.34
2018-08-06T03:07:03.112Z,101542.44
2018-08-06T03:09:31.764Z,101544.48
2018-08-06T03:12:00.541Z,101547.12
2018-08-06T03:14:29.284Z,101550.87
2018-08-06T03:16:57.971Z,101547.42
2018-08-06T03:19:26.635Z,101551.47
2018-08-06T03:21:55.253Z,101551.87
2018-08-06T03:24:24.055Z,101549.53
2018-08-06T03:26:52.880Z,101554.01
2018-08-06T03:29:21.590Z,101542.24
2018-08-06T03:31:50.415Z,101554.32
2018-08-06T03:34:19.516Z,101553.41
2018-08-06T03:36:48.131Z,101553.63
2018-08-06T03:39:16.770Z,101549.23
2018-08-06T03:41:45.581Z,101552.19
2018-08-06T03:44:14.296Z,101553.09
2018-08-06T03:46:42.980Z,101552.53
2018-08-06T03:49:11.626Z,101555.87
2018-08-06T03:51:40.688Z,101557.22
2018-08-06T03:54:09.357Z,101557.14
2018-08-06T03:56:38.200Z,101560.98
2018-08-06T03:59:06.787Z,101561.85
2018-08-06T04:04:31.296Z,101553.47
2018-08-06T04:07:00.967Z,101558.02
2018-08-06T04:09:29.681Z,101561.24
2018-08-06T04:11:58.791Z,101562.16
2018-08-06T04:14:27.794Z,101564.75
2018-08-06T04:16:56.776Z,101565.11
2018-08-06T04:19:25.801Z,101563.67
2018-08-06T04:21:54.744Z,101565.87
2018-08-06T04:24:23.773Z,101566.02
2018-08-06T04:26:52.651Z,101565.64
2018-08-06T04:29:21.405Z,101565.66
2018-08-06T04:31:50.060Z,101563.00
2018-08-06T04:34:18.954Z,101571.17
2018-08-06T04:36:47.827Z,101572.50
2018-08-06T04:39:16.478Z,101568.30
2018-08-06T04:41:45.797Z,101572.69
2018-08-06T04:44:14.454Z,101575.91
2018-08-06T04:46:43.270Z,101575.45
2018-08-06T04:49:12.040Z,101581.27
2018-08-06T04:51:40.929Z,101583.20
2018-08-06T04:54:09.806Z,101582.98
2018-08-06T04:56:38.915Z,101586.78
2018-08-06T04:59:07.637Z,101581.23
2018-08-06T05:01:36.500Z,101593.84
2018-08-06T05:04:05.570Z,101580.88
2018-08-06T05:06:34.186Z,101591.22
2018-08-06T05:09:03.174Z,101596.48
2018-08-06T05:11:32.259Z,101591.73
2018-08-06T05:14:01.131Z,101596.52
2018-08-06T05:16:29.966Z,101590.42
2018-08-06T05:18:58.790Z,101595.41
2018-08-06T05:21:27.952Z,101587.13
2018-08-06T05:23:59.370Z,101589.73
2018-08-06T05:26:30.106Z,101597.09
2018-08-06T05:28:58.991Z,101602.78
2018-08-06T05:31:28.770Z,101596.59
2018-08-06T05:33:58.700Z,101601.86
2018-08-06T05:36:28.048Z,101603.16
2018-08-06T05:38:57.064Z,101604.81
2018-08-06T05:41:27.529Z,101611.84
2018-08-06T05:43:58.137Z,101609.91
2018-08-06T05:46:27.115Z,101613.20
2018-08-06T05:48:56.263Z,101613.37
2018-08-06T05:51:25.091Z,101622.81
2018-08-06T05:53:53.720Z,101618.73
2018-08-06T05:56:22.877Z,101621.89
2018-08-06T05:58:51.687Z,101619.33
2018-08-06T06:01:20.344Z,101622.02
2018-08-06T06:03:49.085Z,101622.00
2018-08-06T06:06:19.110Z,101619.28
2018-08-06T06:08:48.044Z,101628.05
2018-08-06T06:11:16.806Z,101630.38
2018-08-06T06:13:45.442Z,101631.69
2018-08-06T06:16:14.210Z,101632.25
2018-08-06T06:18:43.140Z,101622.23
2018-08-06T06:21:11.979Z,101624.91
2018-08-06T06:23:40.640Z,101627.50
2018-08-06T06:26:09.639Z,101627.45
2018-08-06T06:28:38.470Z,101630.72
2018-08-06T06:31:07.410Z,101620.93
2018-08-06T06:33:36.292Z,101623.16
2018-08-06T06:36:05.086Z,101614.72
2018-08-06T06:38:34.108Z,101629.39
2018-08-06T06:41:03.168Z,101627.66
2018-08-06T06:43:32.079Z,101630.39
2018-08-06T06:46:01.158Z,101632.38
2018-08-06T06:48:30.457Z,101634.70
2018-08-06T06:50:59.371Z,101633.37
2018-08-06T06:53:28.203Z,101637.39
2018-08-06T06:55:57.068Z,101631.27
2018-08-06T06:58:26.040Z,101640.92
2018-08-06T07:00:54.841Z,101639.90
2018-08-06T07:03:23.842Z,101636.56
2018-08-06T07:05:53.070Z,101628.53
2018-08-06T07:08:21.839Z,101630.86
2018-08-06T07:10:50.651Z,101627.33
2018-08-06T07:13:19.505Z,101624.22
2018-08-06T07:15:48.219Z,101625.84
2018-08-06T07:18:17.156Z,101627.24
2018-08-06T07:20:46.446Z,101625.61
2018-08-06T07:23:15.275Z,101621.72
2018-08-06T07:25:44.188Z,101621.20
2018-08-06T07:28:13.136Z,101617.80
2018-08-06T07:30:42.008Z,101617.70
2018-08-06T07:33:10.733Z,101617.70
2018-08-06T07:35:39.607Z,101618.61
2018-08-06T07:38:08.680Z,101613.58
2018-08-06T07:40:37.786Z,101613.84
2018-08-06T07:43:06.673Z,101610.16
2018-08-06T07:45:35.515Z,101611.12
2018-08-06T07:48:04.467Z,101615.90
2018-08-06T07:50:33.134Z,101616.23
2018-08-06T07:53:02.241Z,101613.59
2018-08-06T07:55:31.069Z,101608.28
2018-08-06T07:58:00.017Z,101614.70
2018-08-06T08:00:28.898Z,101607.02
2018-08-06T08:02:57.899Z,101600.38
2018-08-06T08:05:26.825Z,101605.26
2018-08-06T08:07:55.690Z,101602.74
2018-08-06T08:10:24.885Z,101603.14
2018-08-06T08:12:53.747Z,101606.42
2018-08-06T08:15:25.383Z,101595.66
2018-08-06T08:17:54.938Z,101592.47
2018-08-06T08:20:23.729Z,101589.75
2018-08-06T08:22:52.554Z,101576.60
2018-08-06T08:25:22.406Z,101587.05
2018-08-06T08:27:51.200Z,101580.14
2018-08-06T08:30:20.583Z,101580.92
2018-08-06T08:32:49.600Z,101583.50
2018-08-06T08:35:18.910Z,101574.43
2018-08-06T08:37:47.943Z,101577.14
2018-08-06T08:40:19.827Z,101568.53
2018-08-06T08:42:48.656Z,101572.06
2018-08-06T08:45:18.565Z,101571.40
2018-08-06T08:47:47.383Z,101568.28
2018-08-06T08:50:17.928Z,101574.25
2018-08-06T08:52:46.867Z,101568.39
2018-08-06T08:55:17.309Z,101571.08
2018-08-06T08:57:46.241Z,101570.19
2018-08-06T09:00:19.824Z,101571.55
2018-08-06T09:02:49.529Z,101565.99
2018-08-06T09:05:18.727Z,101567.62
2018-08-06T09:07:47.978Z,101564.42
2018-08-06T09:10:17.566Z,101566.17
2018-08-06T09:12:46.871Z,101562.50
2018-08-06T09:15:19.211Z,101557.38
2018-08-06T09:17:48.075Z,101555.24
2018-08-06T09:20:17.435Z,101549.60
2018-08-06T09:22:46.820Z,101547.12
2018-08-06T09:25:16.026Z,101540.90
2018-08-06T09:27:46.139Z,101537.28
2018-08-06T09:30:17.195Z,101542.56
2018-08-06T09:32:47.444Z,101539.38
2018-08-06T09:35:17.111Z,101542.41
2018-08-06T09:37:46.163Z,101534.91
2018-08-06T09:40:16.349Z,101540.98
2018-08-06T09:42:45.821Z,101531.06
2018-08-06T09:45:15.974Z,101532.67
2018-08-06T09:47:45.864Z,101529.25
2018-08-06T09:50:15.594Z,101524.55
2018-08-06T09:52:45.164Z,101522.70
2018-08-06T09:55:15.420Z,101530.34
2018-08-06T09:57:44.455Z,101524.25
2018-08-06T10:00:21.627Z,101520.78
2018-08-06T10:02:51.292Z,101511.30
2018-08-06T10:05:21.330Z,101511.05
2018-08-06T10:07:50.143Z,101505.39
2018-08-06T10:10:19.045Z,101502.62
2018-08-06T10:12:48.056Z,101496.30
2018-08-06T10:15:17.702Z,101501.27
2018-08-06T10:17:48.177Z,101494.45
2018-08-06T10:20:19.055Z,101490.75
2018-08-06T10:22:48.616Z,101491.56
2018-08-06T10:25:17.706Z,101484.09
2018-08-06T10:27:47.209Z,101486.62
2018-08-06T10:30:22.993Z,101482.05
2018-08-06T10:32:51.693Z,101483.14
2018-08-06T10:35:21.063Z,101480.61
2018-08-06T10:37:49.946Z,101481.56
2018-08-06T10:40:22.042Z,101472.61
2018-08-06T10:42:50.969Z,101474.03
2018-08-06T10:45:21.999Z,101474.84
2018-08-06T10:47:51.274Z,101475.37
2018-08-06T10:50:20.432Z,101477.92
2018-08-06T10:52:49.338Z,101468.56
2018-08-06T10:55:18.099Z,101459.33
2018-08-06T10:57:47.268Z,101467.87
2018-08-06T11:00:18.701Z,101462.77
2018-08-06T11:02:48.270Z,101471.89
2018-08-06T11:05:18.115Z,101460.58
2018-08-06T11:07:47.683Z,101459.17
2018-08-06T11:10:19.598Z,101455.89
2018-08-06T11:12:48.427Z,101450.67
2018-08-06T11:15:19.087Z,101443.20
2018-08-06T11:17:48.114Z,101449.08
2018-08-06T11:20:17.956Z,101440.34
2018-08-06T11:22:47.266Z,101437.36
2018-08-06T11:25:17.776Z,101434.56
2018-08-06T11:27:46.747Z,101435.57
2018-08-06T11:30:17.751Z,101426.62
2018-08-06T11:32:47.379Z,101430.84
2018-08-06T11:35:16.801Z,101429.87
2018-08-06T11:37:45.592Z,101425.95
2018-08-06T11:40:16.027Z,101424.01
2018-08-06T11:42:45.507Z,101417.15
2018-08-06T11:45:16.138Z,101418.12
2018-08-06T11:47:45.200Z,101424.00
2018-08-06T11:50:14.199Z,101416.44
2018-08-06T11:52:44.191Z,101411.31
2018-08-06T11:55:13.122Z,101417.99
2018-08-06T11:57:42.134Z,101404.30
2018-08-06T12:00:15.057Z,101405.93
2018-08-06T12:02:43.815Z,101407.81
2018-08-06T12:05:12.873Z,101402.18
2018-08-06T12:07:41.595Z,101399.81
2018-08-06T12:10:12.776Z,101403.91
2018-08-06T12:12:42.329Z,101393.47
2018-08-06T12:15:12.549Z,101398.64
2018-08-06T12:17:42.267Z,101388.47
2018-08-06T12:20:14.237Z,101390.71
2018-08-06T12:22:44.031Z,101376.63
2018-08-06T12:25:14.138Z,101378.36
2018-08-06T12:27:43.325Z,101382.02
2018-08-06T12:30:14.488Z,101377.23
2018-08-06T12:32:44.029Z,101376.16
2018-08-06T12:35:12.919Z,101370.02
2018-08-06T12:37:41.760Z,101370.27
2018-08-06T12:40:25.936Z,101368.19
2018-08-06T12:42:54.807Z,101363.24
2018-08-06T12:45:23.795Z,101361.24
2018-08-06T12:47:52.891Z,101364.86
2018-08-06T12:50:21.718Z,101358.86
2018-08-06T12:52:50.576Z,101359.34
2018-08-06T12:55:20.011Z,101356.72
2018-08-06T12:57:49.001Z,101352.78
2018-08-06T13:00:23.347Z,101349.20
2018-08-06T13:02:52.976Z,101347.69
2018-08-06T13:05:22.548Z,101347.49
2018-08-06T13:07:51.380Z,101342.67
2018-08-06T13:10:20.250Z,101341.00
2018-08-06T13:12:49.096Z,101339.77
2018-08-06T13:15:18.227Z,101335.19
2018-08-06T13:17:47.130Z,101326.58
2018-08-06T13:20:16.027Z,101329.25
2018-08-06T13:22:45.139Z,101327.45
2018-08-06T13:25:14.232Z,101321.84
2018-08-06T13:27:43.057Z,101327.30
2018-08-06T13:30:14.012Z,101327.98
2018-08-06T13:32:43.833Z,101323.55
2018-08-06T13:35:13.535Z,101333.95
2018-08-06T13:37:42.183Z,101331.31
2018-08-06T13:40:11.948Z,101318.79
2018-08-06T13:42:40.760Z,101317.02
2018-08-06T13:45:11.734Z,101312.69
2018-08-06T13:47:40.484Z,101311.92
2018-08-06T13:50:09.961Z,101309.42
2018-08-06T13:52:39.392Z,101307.70
2018-08-06T13:55:09.667Z,101306.45
2018-08-06T13:57:38.673Z,101298.73
2018-08-06T14:00:14.884Z,101301.06
2018-08-06T14:02:44.535Z,101292.12
2018-08-06T14:05:14.841Z,101287.45
2018-08-06T14:07:44.885Z,101284.79
2018-08-06T14:10:13.715Z,101283.48
2018-08-06T14:12:42.353Z,101282.83
2018-08-06T14:15:12.404Z,101270.29
2018-08-06T14:17:41.823Z,101267.09
2018-08-06T14:20:13.441Z,101264.87
2018-08-06T14:22:43.095Z,101268.47
2018-08-06T14:25:12.550Z,101261.09
2018-08-06T14:27:41.480Z,101255.95
2018-08-06T14:30:13.376Z,101248.42
2018-08-06T14:32:42.791Z,101263.42
2018-08-06T14:35:11.971Z,101258.87
2018-08-06T14:37:40.863Z,101255.14
2018-08-06T14:40:12.579Z,101248.38
2018-08-06T14:42:41.259Z,101258.33
2018-08-06T14:45:10.942Z,101248.94
2018-08-06T14:47:39.655Z,101247.00
2018-08-06T14:50:10.184Z,101244.19
2018-08-06T14:52:39.123Z,101242.03
2018-08-06T14:55:08.137Z,101248.56
2018-08-06T14:57:37.592Z,101243.89
2018-08-06T15:00:16.761Z,101246.39
2018-08-06T15:02:45.513Z,101242.05
2018-08-06T15:05:14.304Z,101236.53
2018-08-06T15:07:43.065Z,101234.65
2018-08-06T15:10:13.322Z,101238.59
2018-08-06T15:12:42.113Z,101237.63
2018-08-06T15:15:16.424Z,101238.96
2018-08-06T15:17:45.968Z,101234.88
2018-08-06T15:20:16.046Z,101235.28
2018-08-06T15:22:45.155Z,101224.33
2018-08-06T15:25:16.641Z,101223.84
2018-08-06T15:27:45.362Z,101209.84
2018-08-06T15:30:15.501Z,101202.84
2018-08-06T15:32:45.207Z,101199.64
2018-08-06T15:35:14.853Z,101195.38
2018-08-06T15:37:47.896Z,101202.69
2018-08-06T15:40:18.964Z,101199.55
2018-08-06T15:42:47.909Z,101193.42
2018-08-06T15:45:17.024Z,101183.58
2018-08-06T15:47:46.587Z,101188.72
2018-08-06T15:50:17.939Z,101180.38
2018-08-06T15:52:46.762Z,101181.09
2018-08-06T15:55:17.881Z,101184.22
2018-08-06T15:57:47.283Z,101181.97
2018-08-06T16:00:23.249Z,101175.67
2018-08-06T16:02:52.083Z,101185.64
2018-08-06T16:05:20.779Z,101171.15
2018-08-06T16:07:49.698Z,101172.83
2018-08-06T16:10:19.055Z,101169.69
2018-08-06T16:12:47.854Z,101166.09
2018-08-06T16:15:17.288Z,101170.02
2018-08-06T16:17:46.492Z,101155.02
2018-08-06T16:20:17.873Z,101153.34
2018-08-06T16:22:47.155Z,101154.06
2018-08-06T16:25:16.688Z,101150.77
2018-08-06T16:27:46.610Z,101153.20
2018-08-06T16:30:16.968Z,101154.17
2018-08-06T16:32:47.002Z,101151.30
2018-08-06T16:35:16.987Z,101145.95
2018-08-06T16:37:45.888Z,101148.52
2018-08-06T16:40:16.383Z,101144.12
2018-08-06T16:42:45.263Z,101138.09
2018-08-06T16:45:14.157Z,101133.51
2018-08-06T16:47:43.271Z,101128.93
2018-08-06T16:50:14.916Z,101132.94
2018-08-06T16:52:43.985Z,101130.37
2018-08-06T16:55:13.003Z,101128.15
2018-08-06T16:57:42.003Z,101129.39
2018-08-06T17:00:14.415Z,101127.72
2018-08-06T17:02:43.192Z,101128.16
2018-08-06T17:05:13.268Z,101124.75
2018-08-06T17:07:43.222Z,101120.48
2018-08-06T17:10:14.191Z,101124.87
2018-08-06T17:12:44.685Z,101117.86
2018-08-06T17:15:15.016Z,101118.84
2018-08-06T17:17:43.899Z,101117.03
2018-08-06T17:20:15.896Z,101112.58
2018-08-06T17:22:46.370Z,101113.64
2018-08-06T17:25:15.875Z,101106.77
2018-08-06T17:27:44.907Z,101106.98
2018-08-06T17:30:14.818Z,101112.78
2018-08-06T17:32:43.763Z,101112.56
2018-08-06T17:35:13.340Z,101112.77
2018-08-06T17:37:43.418Z,101110.12
2018-08-06T17:40:18.483Z,101110.60
2018-08-06T17:42:47.538Z,101107.68
2018-08-06T17:45:18.968Z,101111.16
2018-08-06T17:47:47.750Z,101107.60
2018-08-06T17:50:18.589Z,101107.59
2018-08-06T17:52:48.966Z,101103.86
2018-08-06T17:55:19.036Z,101102.81
2018-08-06T17:57:48.025Z,101105.70
2018-08-06T18:00:17.855Z,101102.08
2018-08-06T18:02:46.786Z,101100.45
2018-08-06T18:05:17.190Z,101097.30
2018-08-06T18:07:46.371Z,101093.81
2018-08-06T18:10:16.867Z,101096.50
2018-08-06T18:12:46.244Z,101096.25
2018-08-06T18:15:15.910Z,101090.34
2018-08-06T18:17:45.490Z,101102.91
2018-08-06T18:20:17.295Z,101102.88
2018-08-06T18:22:46.319Z,101104.31
2018-08-06T18:25:17.160Z,101104.42
2018-08-06T18:27:46.979Z,101109.75
2018-08-06T18:30:17.802Z,101109.19
2018-08-06T18:32:46.550Z,101114.13
2018-08-06T18:35:17.263Z,101112.00
2018-08-06T18:37:45.965Z,101114.52
2018-08-06T18:40:15.735Z,101104.78
2018-08-06T18:42:44.977Z,101112.66
2018-08-06T18:45:15.899Z,101116.14
2018-08-06T18:47:45.803Z,101113.02
2018-08-06T18:50:15.617Z,101119.25
2018-08-06T18:52:45.557Z,101120.72
2018-08-06T18:55:15.214Z,101121.70
2018-08-06T18:57:44.683Z,101120.56
2018-08-06T19:00:19.059Z,101123.55
2018-08-06T19:02:48.232Z,101119.97
2018-08-06T19:05:19.254Z,101123.12
2018-08-06T19:07:50.890Z,101120.93
2018-08-06T19:10:22.198Z,101128.87
2018-08-06T19:12:56.616Z,101124.25
2018-08-06T19:15:26.667Z,101130.36
2018-08-06T19:18:04.751Z,101122.72
2018-08-06T19:20:34.733Z,101128.11
2018-08-06T19:23:03.882Z,101121.36
2018-08-06T19:25:33.797Z,101126.16
2018-08-06T19:28:02.879Z,101127.10
2018-08-06T19:30:37.052Z,101134.81
2018-08-06T19:33:06.212Z,101133.00
2018-08-06T19:35:35.089Z,101130.64
2018-08-06T19:38:03.821Z,101127.15
2018-08-06T19:40:32.613Z,101133.87
2018-08-06T19:43:08.403Z,101132.91
2018-08-06T19:45:38.422Z,101135.59
2018-08-06T19:48:07.419Z,101128.47
2018-08-06T19:50:39.691Z,101129.63
2018-08-06T19:53:09.820Z,101136.35
2018-08-06T19:55:43.963Z,101129.44
2018-08-06T19:58:12.875Z,101131.23
2018-08-06T20:00:41.845Z,101136.27
2018-08-06T20:03:10.918Z,101136.18
2018-08-06T20:05:39.735Z,101130.81
2018-08-06T20:08:08.692Z,101135.67
2018-08-06T20:10:37.956Z,101127.12
2018-08-06T20:13:07.544Z,101130.02
2018-08-06T20:15:36.594Z,101126.48
2018-08-06T20:18:05.883Z,101124.66
2018-08-06T20:20:34.711Z,101126.03
2018-08-06T20:23:03.663Z,101124.54
2018-08-06T20:25:32.532Z,101130.25
2018-08-06T20:28:01.449Z,101127.92
2018-08-06T20:30:30.555Z,101125.34
2018-08-06T20:33:01.481Z,101121.02
2018-08-06T20:35:31.766Z,101120.30
2018-08-06T20:38:01.532Z,101126.92
2018-08-06T20:40:30.623Z,101132.36
2018-08-06T20:42:59.718Z,101131.00
2018-08-06T20:45:28.804Z,101131.55
2018-08-06T20:47:57.601Z,101131.75
2018-08-06T20:50:26.587Z,101130.84
2018-08-06T20:52:55.747Z,101137.24
2018-08-06T20:55:24.764Z,101137.70
2018-08-06T20:57:54.165Z,101135.16
2018-08-06T21:00:24.543Z,101143.66
2018-08-06T21:02:54.144Z,101147.41
2018-08-06T21:05:23.421Z,101146.01
2018-08-06T21:07:52.419Z,101147.78
2018-08-06T21:10:21.818Z,101150.63
2018-08-06T21:12:51.169Z,101149.51
2018-08-06T21:15:19.970Z,101152.57
2018-08-06T21:17:49.005Z,101147.88
2018-08-06T21:20:19.211Z,101144.14
2018-08-06T21:22:49.183Z,101144.81
2018-08-06T21:25:17.912Z,101148.41
2018-08-06T21:27:47.871Z,101149.81
2018-08-06T21:30:18.871Z,101149.09
2018-08-06T21:32:57.387Z,101146.45
2018-08-06T21:35:27.354Z,101144.38
2018-08-06T21:37:56.804Z,101145.14
2018-08-06T21:40:28.372Z,101149.09
2018-08-06T21:42:57.184Z,101146.79
2018-08-06T21:45:26.343Z,101146.16
2018-08-06T21:47:55.060Z,101145.92
2018-08-06T21:50:24.129Z,101139.10
2018-08-06T21:52:53.019Z,101140.73
2018-08-06T21:55:21.843Z,101146.97
2018-08-06T21:57:51.220Z,101149.70
2018-08-06T22:00:39.819Z,101146.36
2018-08-06T22:03:18.128Z,101147.47
2018-08-06T22:05:47.428Z,101146.38
2018-08-06T22:08:16.468Z,101145.17
2018-08-06T22:10:45.109Z,101146.11
2018-08-06T22:13:14.076Z,101140.73
2018-08-06T22:15:42.875Z,101143.31
2018-08-06T22:18:13.088Z,101140.70
2018-08-06T22:20:42.206Z,101141.45
2018-08-06T22:23:10.847Z,101147.36
2018-08-06T22:25:39.927Z,101144.89
2018-08-06T22:28:10.951Z,101137.33
2018-08-06T22:30:39.759Z,101138.09
2018-08-06T22:33:09.044Z,101140.55
2018-08-06T22:35:38.975Z,101143.75
2018-08-06T22:38:08.535Z,101146.21
2018-08-06T22:40:37.476Z,101145.82
2018-08-06T22:43:06.318Z,101145.59
2018-08-06T22:45:35.354Z,101141.63
2018-08-06T22:48:04.443Z,101139.96
2018-08-06T22:50:33.303Z,101144.92
2018-08-06T22:53:02.266Z,101144.44
2018-08-06T22:55:41.049Z,101141.01
2018-08-06T22:58:09.721Z,101146.40
2018-08-06T23:00:38.462Z,101141.54
2018-08-06T23:03:09.026Z,101134.67
2018-08-06T23:05:37.763Z,101133.89
2018-08-06T23:08:06.583Z,101136.48
2018-08-06T23:10:35.427Z,101133.76
2018-08-06T23:13:04.226Z,101133.11
2018-08-06T23:15:33.013Z,101129.66
2018-08-06T23:18:01.680Z,101133.05
2018-08-06T23:20:30.503Z,101129.86
2018-08-06T23:22:59.354Z,101124.26
2018-08-06T23:25:28.272Z,101122.20
2018-08-06T23:27:56.995Z,101120.71
2018-08-06T23:30:26.040Z,101122.88
2018-08-06T23:32:54.927Z,101121.59
2018-08-06T23:35:23.747Z,101123.39
2018-08-06T23:37:52.367Z,101119.91
2018-08-06T23:40:21.399Z,101112.94
2018-08-06T23:42:50.301Z,101116.44
2018-08-06T23:45:19.084Z,101113.16
2018-08-06T23:47:47.717Z,101109.30
2018-08-06T23:50:16.565Z,101110.86
2018-08-06T23:52:46.502Z,101109.45
2018-08-06T23:55:17.922Z,101103.86
2018-08-06T23:57:47.128Z,101102.33
